Ana Sayfa
METAR-TAF:

METAR-TAF

Havaalanları :

Maastricht Aachen, Hollanda

Enlem: 50-55N, Boylam: 005-47E, yükseklik: 114 m

Güncel hava durumu gözlemi

Rapor saat 19:55 UTC de 34 dakika önce yapıldı.
Rüzgar değişken yönden 2 kt
Sıcaklık 29°C
Nem 55%
Basınç 1019 hPa
Görüş mesafesi 10 km veya daha fazla

METAR: EHBK 251955Z AUTO VRB02KT 9999 NSC 29/19 Q1019 NOSIG

Saat: 22:29 (20:29 UTC)

Tahmin

Rapor saat 16:57 UTC de 3 saat ve 32 dakika önce yapıldı.
Ayın 25'si saat 18 UTC'den ayın 26'si saat 24 UTC'ye kadar geçerli Tahmin
Rüzgar batıdan 5 kt
Görüş mesafesi 10 km veya daha fazla
1500 m altında bulut yok ve kümülonimbus yok
Dönüşüyor
ayın 26'si saat 17 UTC'den ayın 26'si saat 20 UTC'ye kadar
Rüzgar kuzey/kuzeydoğudan 10 kt

TAF: EHBK 251657Z 2518/2624 27005KT CAVOK BECMG 2617/2620 02010KT

4.000'den fazla havaalanı için hava durumu gözlemleri ve tahminleri (METAR ve TAF raporları).

Kullanılabilir istasyonlar harita üzerinde sarı ve kırmızı noktalarla gösterilir.

İstasyonun adını görmek için fareyi noktanın üzerinde gezdirin.

Sonrasında hava gözlem ve tahminlerini görmek için tıklayın.

Haritayı değiştirmek için: yaklaştırmak için siyah artı işaretli yeşil düğmeye ve uzaklaştırmak için de eksi işaretli düğmeye hızla tıklayın; bitişik haritalar için yeşil okları kullanın.


METAR-TAF: